sensor_id;sensor_type;location;lat;lon;timestamp;P1;durP1;ratioP1;P2;durP2;ratioP2
37805;SDS011;25082;50.870;0.022;2024-03-23T00:53:18;6.40;;;1.75;;
37805;SDS011;25082;50.870;0.022;2024-03-23T00:55:43;9.05;;;1.95;;
37805;SDS011;25082;50.870;0.022;2024-03-23T00:58:09;7.05;;;1.95;;
37805;SDS011;25082;50.870;0.022;2024-03-23T01:00:35;5.68;;;1.85;;
37805;SDS011;25082;50.870;0.022;2024-03-23T01:03:01;7.70;;;1.67;;
37805;SDS011;25082;50.870;0.022;2024-03-23T01:05:27;8.15;;;1.83;;
37805;SDS011;25082;50.870;0.022;2024-03-23T01:07:52;5.32;;;1.80;;
37805;SDS011;25082;50.870;0.022;2024-03-23T01:10:18;6.32;;;1.73;;
37805;SDS011;25082;50.870;0.022;2024-03-23T01:12:44;4.35;;;1.52;;
37805;SDS011;25082;50.870;0.022;2024-03-23T01:15:10;9.43;;;1.77;;
37805;SDS011;25082;50.870;0.022;2024-03-23T01:17:35;3.53;;;1.30;;
37805;SDS011;25082;50.870;0.022;2024-03-23T01:20:02;4.15;;;1.45;;
37805;SDS011;25082;50.870;0.022;2024-03-23T01:22:28;5.57;;;1.73;;
37805;SDS011;25082;50.870;0.022;2024-03-23T01:24:53;5.82;;;1.55;;
37805;SDS011;25082;50.870;0.022;2024-03-23T01:27:19;5.30;;;1.42;;
37805;SDS011;25082;50.870;0.022;2024-03-23T01:29:45;6.38;;;1.80;;
37805;SDS011;25082;50.870;0.022;2024-03-23T01:32:10;5.45;;;1.65;;
37805;SDS011;25082;50.870;0.022;2024-03-23T01:34:36;3.72;;;1.58;;
37805;SDS011;25082;50.870;0.022;2024-03-23T01:37:02;5.00;;;1.42;;
37805;SDS011;25082;50.870;0.022;2024-03-23T01:39:28;7.25;;;2.55;;
37805;SDS011;25082;50.870;0.022;2024-03-23T01:41:54;7.40;;;2.10;;
37805;SDS011;25082;50.870;0.022;2024-03-23T01:44:19;6.65;;;1.70;;
37805;SDS011;25082;50.870;0.022;2024-03-23T01:46:45;6.38;;;2.28;;
37805;SDS011;25082;50.870;0.022;2024-03-23T01:49:11;3.72;;;1.77;;
37805;SDS011;25082;50.870;0.022;2024-03-23T01:51:37;7.90;;;1.77;;
37805;SDS011;25082;50.870;0.022;2024-03-23T01:54:03;4.47;;;1.65;;
37805;SDS011;25082;50.870;0.022;2024-03-23T01:56:34;6.07;;;1.95;;
37805;SDS011;25082;50.870;0.022;2024-03-23T01:59:03;5.97;;;1.85;;
37805;SDS011;25082;50.870;0.022;2024-03-23T02:01:30;5.30;;;1.98;;
37805;SDS011;25082;50.870;0.022;2024-03-23T02:03:56;6.13;;;1.60;;
37805;SDS011;25082;50.870;0.022;2024-03-23T02:06:22;4.57;;;1.48;;
37805;SDS011;25082;50.870;0.022;2024-03-23T02:08:49;4.95;;;1.70;;
37805;SDS011;25082;50.870;0.022;2024-03-23T02:11:15;6.07;;;1.48;;
37805;SDS011;25082;50.870;0.022;2024-03-23T02:13:41;4.93;;;1.70;;
37805;SDS011;25082;50.870;0.022;2024-03-23T02:16:06;3.35;;;1.10;;
37805;SDS011;25082;50.870;0.022;2024-03-23T02:18:32;3.42;;;1.20;;
37805;SDS011;25082;50.870;0.022;2024-03-23T02:20:58;5.20;;;1.42;;
37805;SDS011;25082;50.870;0.022;2024-03-23T02:23:24;6.22;;;2.28;;
37805;SDS011;25082;50.870;0.022;2024-03-23T02:25:50;3.28;;;1.13;;
37805;SDS011;25082;50.870;0.022;2024-03-23T02:28:18;5.95;;;1.85;;
37805;SDS011;25082;50.870;0.022;2024-03-23T02:30:44;4.28;;;1.25;;
37805;SDS011;25082;50.870;0.022;2024-03-23T02:33:10;3.72;;;1.23;;
37805;SDS011;25082;50.870;0.022;2024-03-23T02:35:35;2.70;;;1.08;;
37805;SDS011;25082;50.870;0.022;2024-03-23T02:38:02;5.28;;;1.42;;
37805;SDS011;25082;50.870;0.022;2024-03-23T02:40:28;5.35;;;1.40;;
37805;SDS011;25082;50.870;0.022;2024-03-23T02:42:54;3.10;;;1.42;;
37805;SDS011;25082;50.870;0.022;2024-03-23T02:45:20;4.90;;;1.38;;
37805;SDS011;25082;50.870;0.022;2024-03-23T02:47:46;4.43;;;1.50;;
37805;SDS011;25082;50.870;0.022;2024-03-23T02:50:11;5.13;;;1.83;;
37805;SDS011;25082;50.870;0.022;2024-03-23T02:52:37;4.40;;;1.70;;
37805;SDS011;25082;50.870;0.022;2024-03-23T02:55:03;4.28;;;1.25;;
37805;SDS011;25082;50.870;0.022;2024-03-23T02:57:30;5.22;;;1.20;;
37805;SDS011;25082;50.870;0.022;2024-03-23T02:59:55;3.40;;;1.25;;
37805;SDS011;25082;50.870;0.022;2024-03-23T03:02:21;1.85;;;0.95;;
37805;SDS011;25082;50.870;0.022;2024-03-23T03:04:47;3.55;;;1.30;;
37805;SDS011;25082;50.870;0.022;2024-03-23T03:07:13;4.25;;;1.50;;
37805;SDS011;25082;50.870;0.022;2024-03-23T03:09:39;3.55;;;1.27;;
37805;SDS011;25082;50.870;0.022;2024-03-23T03:12:05;4.25;;;1.25;;
37805;SDS011;25082;50.870;0.022;2024-03-23T03:14:31;5.50;;;1.30;;
37805;SDS011;25082;50.870;0.022;2024-03-23T03:16:57;3.70;;;1.30;;
37805;SDS011;25082;50.870;0.022;2024-03-23T03:19:23;6.40;;;1.38;;
37805;SDS011;25082;50.870;0.022;2024-03-23T03:21:49;3.70;;;1.35;;
37805;SDS011;25082;50.870;0.022;2024-03-23T03:24:15;6.03;;;1.45;;
37805;SDS011;25082;50.870;0.022;2024-03-23T03:26:41;3.72;;;1.13;;
37805;SDS011;25082;50.870;0.022;2024-03-23T03:29:07;2.95;;;0.80;;
37805;SDS011;25082;50.870;0.022;2024-03-23T03:31:32;3.35;;;1.00;;
37805;SDS011;25082;50.870;0.022;2024-03-23T03:33:58;4.68;;;1.02;;
37805;SDS011;25082;50.870;0.022;2024-03-23T03:36:24;3.50;;;1.08;;
37805;SDS011;25082;50.870;0.022;2024-03-23T03:38:50;4.82;;;1.25;;
37805;SDS011;25082;50.870;0.022;2024-03-23T03:41:15;5.57;;;1.70;;
37805;SDS011;25082;50.870;0.022;2024-03-23T03:43:41;5.35;;;1.15;;
37805;SDS011;25082;50.870;0.022;2024-03-23T03:46:07;2.60;;;0.80;;
37805;SDS011;25082;50.870;0.022;2024-03-23T03:48:33;4.97;;;1.58;;
37805;SDS011;25082;50.870;0.022;2024-03-23T03:50:59;2.47;;;0.80;;
37805;SDS011;25082;50.870;0.022;2024-03-23T03:53:25;5.13;;;1.58;;
37805;SDS011;25082;50.870;0.022;2024-03-23T03:55:51;3.45;;;1.23;;
37805;SDS011;25082;50.870;0.022;2024-03-23T03:58:17;4.53;;;1.20;;
37805;SDS011;25082;50.870;0.022;2024-03-23T04:00:43;3.30;;;1.08;;
37805;SDS011;25082;50.870;0.022;2024-03-23T04:03:08;2.53;;;1.13;;
37805;SDS011;25082;50.870;0.022;2024-03-23T04:05:34;5.28;;;1.15;;
37805;SDS011;25082;50.870;0.022;2024-03-23T04:08:00;2.97;;;0.95;;
37805;SDS011;25082;50.870;0.022;2024-03-23T04:10:26;3.30;;;0.95;;
37805;SDS011;25082;50.870;0.022;2024-03-23T04:12:52;4.55;;;1.42;;
37805;SDS011;25082;50.870;0.022;2024-03-23T04:15:18;2.80;;;1.10;;
37805;SDS011;25082;50.870;0.022;2024-03-23T04:17:44;4.78;;;1.65;;
37805;SDS011;25082;50.870;0.022;2024-03-23T04:20:10;5.10;;;1.30;;
37805;SDS011;25082;50.870;0.022;2024-03-23T04:22:38;4.80;;;1.40;;
37805;SDS011;25082;50.870;0.022;2024-03-23T04:25:05;3.15;;;0.98;;
37805;SDS011;25082;50.870;0.022;2024-03-23T04:27:38;4.82;;;1.13;;
37805;SDS011;25082;50.870;0.022;2024-03-23T04:30:04;4.85;;;1.20;;
37805;SDS011;25082;50.870;0.022;2024-03-23T04:32:35;3.78;;;0.90;;
37805;SDS011;25082;50.870;0.022;2024-03-23T04:35:01;5.35;;;1.30;;
37805;SDS011;25082;50.870;0.022;2024-03-23T04:37:39;4.30;;;0.90;;
37805;SDS011;25082;50.870;0.022;2024-03-23T04:40:08;4.07;;;1.02;;
37805;SDS011;25082;50.870;0.022;2024-03-23T04:42:34;4.35;;;1.20;;
37805;SDS011;25082;50.870;0.022;2024-03-23T04:45:00;4.10;;;0.90;;
37805;SDS011;25082;50.870;0.022;2024-03-23T04:47:26;3.20;;;1.00;;
37805;SDS011;25082;50.870;0.022;2024-03-23T04:49:52;1.95;;;1.35;;
37805;SDS011;25082;50.870;0.022;2024-03-23T04:52:18;4.35;;;1.50;;
37805;SDS011;25082;50.870;0.022;2024-03-23T04:54:44;6.22;;;1.13;;
37805;SDS011;25082;50.870;0.022;2024-03-23T04:57:13;2.60;;;0.95;;
37805;SDS011;25082;50.870;0.022;2024-03-23T04:59:39;4.55;;;1.38;;
37805;SDS011;25082;50.870;0.022;2024-03-23T05:02:05;3.83;;;1.20;;
37805;SDS011;25082;50.870;0.022;2024-03-23T05:04:30;5.93;;;1.27;;
37805;SDS011;25082;50.870;0.022;2024-03-23T05:06:57;3.95;;;1.00;;
37805;SDS011;25082;50.870;0.022;2024-03-23T05:09:23;3.70;;;1.17;;
37805;SDS011;25082;50.870;0.022;2024-03-23T05:11:49;2.78;;;0.90;;
37805;SDS011;25082;50.870;0.022;2024-03-23T05:14:14;2.80;;;0.90;;
37805;SDS011;25082;50.870;0.022;2024-03-23T05:16:40;2.63;;;0.90;;
37805;SDS011;25082;50.870;0.022;2024-03-23T05:19:06;2.33;;;1.05;;
37805;SDS011;25082;50.870;0.022;2024-03-23T05:21:32;6.65;;;1.90;;
37805;SDS011;25082;50.870;0.022;2024-03-23T05:23:58;2.15;;;0.73;;
37805;SDS011;25082;50.870;0.022;2024-03-23T05:26:24;4.78;;;1.55;;
37805;SDS011;25082;50.870;0.022;2024-03-23T05:28:49;6.10;;;1.20;;
37805;SDS011;25082;50.870;0.022;2024-03-23T05:31:25;3.40;;;1.15;;
37805;SDS011;25082;50.870;0.022;2024-03-23T05:33:51;6.55;;;1.48;;
37805;SDS011;25082;50.870;0.022;2024-03-23T05:36:18;5.45;;;1.33;;
37805;SDS011;25082;50.870;0.022;2024-03-23T05:38:44;3.53;;;1.20;;
37805;SDS011;25082;50.870;0.022;2024-03-23T05:41:10;4.63;;;1.08;;
37805;SDS011;25082;50.870;0.022;2024-03-23T05:43:36;2.60;;;1.20;;
37805;SDS011;25082;50.870;0.022;2024-03-23T05:46:01;4.72;;;1.30;;
37805;SDS011;25082;50.870;0.022;2024-03-23T05:48:28;2.63;;;1.10;;
37805;SDS011;25082;50.870;0.022;2024-03-23T05:50:55;4.57;;;1.17;;
37805;SDS011;25082;50.870;0.022;2024-03-23T05:53:21;3.38;;;1.23;;
37805;SDS011;25082;50.870;0.022;2024-03-23T05:55:47;4.88;;;1.23;;
37805;SDS011;25082;50.870;0.022;2024-03-23T05:58:16;8.75;;;1.80;;
37805;SDS011;25082;50.870;0.022;2024-03-23T06:00:43;4.13;;;1.20;;
37805;SDS011;25082;50.870;0.022;2024-03-23T06:03:09;4.05;;;1.38;;
37805;SDS011;25082;50.870;0.022;2024-03-23T06:05:38;2.65;;;0.98;;
37805;SDS011;25082;50.870;0.022;2024-03-23T06:08:04;6.85;;;1.25;;
37805;SDS011;25082;50.870;0.022;2024-03-23T06:10:30;2.00;;;0.85;;
37805;SDS011;25082;50.870;0.022;2024-03-23T06:12:59;3.58;;;1.10;;
37805;SDS011;25082;50.870;0.022;2024-03-23T06:15:24;3.22;;;0.82;;
37805;SDS011;25082;50.870;0.022;2024-03-23T06:17:51;5.75;;;1.38;;
37805;SDS011;25082;50.870;0.022;2024-03-23T06:20:17;7.45;;;1.00;;
37805;SDS011;25082;50.870;0.022;2024-03-23T06:22:42;2.75;;;0.93;;
37805;SDS011;25082;50.870;0.022;2024-03-23T06:25:08;4.03;;;1.20;;
37805;SDS011;25082;50.870;0.022;2024-03-23T06:27:34;3.97;;;1.02;;
37805;SDS011;25082;50.870;0.022;2024-03-23T06:30:00;4.25;;;1.30;;
37805;SDS011;25082;50.870;0.022;2024-03-23T06:32:25;6.43;;;1.10;;
37805;SDS011;25082;50.870;0.022;2024-03-23T06:34:52;4.35;;;1.20;;
37805;SDS011;25082;50.870;0.022;2024-03-23T06:37:18;3.88;;;1.55;;
37805;SDS011;25082;50.870;0.022;2024-03-23T06:39:45;5.72;;;1.00;;
37805;SDS011;25082;50.870;0.022;2024-03-23T06:42:11;4.93;;;1.20;;
37805;SDS011;25082;50.870;0.022;2024-03-23T06:44:38;8.35;;;2.00;;
37805;SDS011;25082;50.870;0.022;2024-03-23T06:47:04;5.10;;;1.08;;
37805;SDS011;25082;50.870;0.022;2024-03-23T06:49:30;4.10;;;1.17;;
37805;SDS011;25082;50.870;0.022;2024-03-23T06:51:56;5.43;;;1.17;;
37805;SDS011;25082;50.870;0.022;2024-03-23T06:54:22;3.55;;;1.58;;
37805;SDS011;25082;50.870;0.022;2024-03-23T06:56:49;4.45;;;1.70;;
37805;SDS011;25082;50.870;0.022;2024-03-23T06:59:15;4.53;;;1.52;;
37805;SDS011;25082;50.870;0.022;2024-03-23T07:01:41;6.78;;;1.90;;
37805;SDS011;25082;50.870;0.022;2024-03-23T07:04:07;5.43;;;1.45;;
37805;SDS011;25082;50.870;0.022;2024-03-23T07:06:33;5.72;;;1.20;;
37805;SDS011;25082;50.870;0.022;2024-03-23T07:08:59;6.30;;;1.42;;
37805;SDS011;25082;50.870;0.022;2024-03-23T07:11:24;5.35;;;1.25;;
37805;SDS011;25082;50.870;0.022;2024-03-23T07:13:51;3.95;;;1.30;;
37805;SDS011;25082;50.870;0.022;2024-03-23T07:16:19;4.05;;;1.02;;
37805;SDS011;25082;50.870;0.022;2024-03-23T07:18:45;3.22;;;1.02;;
37805;SDS011;25082;50.870;0.022;2024-03-23T07:21:11;5.03;;;1.23;;
37805;SDS011;25082;50.870;0.022;2024-03-23T07:23:37;4.90;;;1.38;;
37805;SDS011;25082;50.870;0.022;2024-03-23T07:26:04;5.00;;;1.08;;
37805;SDS011;25082;50.870;0.022;2024-03-23T07:28:30;2.92;;;0.90;;
37805;SDS011;25082;50.870;0.022;2024-03-23T07:31:05;2.55;;;0.93;;
37805;SDS011;25082;50.870;0.022;2024-03-23T07:33:35;4.45;;;1.52;;
37805;SDS011;25082;50.870;0.022;2024-03-23T07:36:09;4.30;;;1.33;;
37805;SDS011;25082;50.870;0.022;2024-03-23T07:38:35;3.17;;;1.00;;
37805;SDS011;25082;50.870;0.022;2024-03-23T07:43:29;5.25;;;1.30;;
37805;SDS011;25082;50.870;0.022;2024-03-23T07:45:55;4.57;;;1.25;;
37805;SDS011;25082;50.870;0.022;2024-03-23T07:48:21;5.40;;;1.55;;
37805;SDS011;25082;50.870;0.022;2024-03-23T07:51:23;5.07;;;1.38;;
37805;SDS011;25082;50.870;0.022;2024-03-23T07:53:43;4.75;;;1.35;;
37805;SDS011;25082;50.870;0.022;2024-03-23T07:56:17;3.70;;;1.08;;
37805;SDS011;25082;50.870;0.022;2024-03-23T07:58:44;4.35;;;1.58;;
37805;SDS011;25082;50.870;0.022;2024-03-23T08:01:14;5.45;;;1.65;;
37805;SDS011;25082;50.870;0.022;2024-03-23T08:03:44;4.55;;;1.42;;
37805;SDS011;25082;50.870;0.022;2024-03-23T08:08:37;3.75;;;1.40;;
37805;SDS011;25082;50.870;0.022;2024-03-23T08:11:04;4.15;;;1.15;;
37805;SDS011;25082;50.870;0.022;2024-03-23T08:13:30;4.90;;;1.13;;
37805;SDS011;25082;50.870;0.022;2024-03-23T08:15:59;4.07;;;0.95;;
37805;SDS011;25082;50.870;0.022;2024-03-23T08:18:26;4.93;;;1.38;;
37805;SDS011;25082;50.870;0.022;2024-03-23T08:23:27;5.88;;;1.40;;
37805;SDS011;25082;50.870;0.022;2024-03-23T08:25:57;3.95;;;1.15;;
37805;SDS011;25082;50.870;0.022;2024-03-23T08:28:24;5.28;;;1.88;;
37805;SDS011;25082;50.870;0.022;2024-03-23T08:30:50;4.57;;;1.08;;
37805;SDS011;25082;50.870;0.022;2024-03-23T08:33:17;2.55;;;1.17;;
37805;SDS011;25082;50.870;0.022;2024-03-23T08:35:42;3.88;;;1.25;;
37805;SDS011;25082;50.870;0.022;2024-03-23T08:38:17;5.25;;;1.35;;
37805;SDS011;25082;50.870;0.022;2024-03-23T08:40:43;5.63;;;1.45;;
37805;SDS011;25082;50.870;0.022;2024-03-23T08:43:08;4.07;;;1.35;;
37805;SDS011;25082;50.870;0.022;2024-03-23T08:45:34;4.07;;;1.00;;
37805;SDS011;25082;50.870;0.022;2024-03-23T08:48:00;2.00;;;0.93;;
37805;SDS011;25082;50.870;0.022;2024-03-23T08:50:25;3.65;;;1.50;;
37805;SDS011;25082;50.870;0.022;2024-03-23T08:52:51;5.05;;;1.48;;
37805;SDS011;25082;50.870;0.022;2024-03-23T08:55:17;3.92;;;1.25;;
37805;SDS011;25082;50.870;0.022;2024-03-23T08:57:43;3.17;;;1.10;;
37805;SDS011;25082;50.870;0.022;2024-03-23T09:00:09;5.38;;;1.63;;
37805;SDS011;25082;50.870;0.022;2024-03-23T09:02:36;3.95;;;1.10;;
37805;SDS011;25082;50.870;0.022;2024-03-23T09:05:02;6.15;;;1.83;;
37805;SDS011;25082;50.870;0.022;2024-03-23T09:07:32;4.80;;;1.10;;
37805;SDS011;25082;50.870;0.022;2024-03-23T09:09:58;4.93;;;1.42;;
37805;SDS011;25082;50.870;0.022;2024-03-23T09:12:25;4.78;;;1.52;;
37805;SDS011;25082;50.870;0.022;2024-03-23T09:14:51;4.20;;;1.20;;
37805;SDS011;25082;50.870;0.022;2024-03-23T09:17:18;5.25;;;1.42;;
37805;SDS011;25082;50.870;0.022;2024-03-23T09:19:44;5.85;;;1.42;;
37805;SDS011;25082;50.870;0.022;2024-03-23T09:22:10;5.65;;;1.45;;
37805;SDS011;25082;50.870;0.022;2024-03-23T09:24:35;5.88;;;1.15;;
37805;SDS011;25082;50.870;0.022;2024-03-23T09:27:01;3.10;;;1.08;;
37805;SDS011;25082;50.870;0.022;2024-03-23T09:29:28;3.03;;;1.10;;
37805;SDS011;25082;50.870;0.022;2024-03-23T09:31:54;5.50;;;1.27;;
37805;SDS011;25082;50.870;0.022;2024-03-23T09:34:19;3.08;;;1.20;;
37805;SDS011;25082;50.870;0.022;2024-03-23T09:36:45;5.78;;;1.38;;
37805;SDS011;25082;50.870;0.022;2024-03-23T09:39:12;5.45;;;1.73;;
37805;SDS011;25082;50.870;0.022;2024-03-23T09:41:39;5.60;;;1.58;;
37805;SDS011;25082;50.870;0.022;2024-03-23T09:44:04;3.30;;;1.02;;
37805;SDS011;25082;50.870;0.022;2024-03-23T09:46:30;4.70;;;1.40;;
37805;SDS011;25082;50.870;0.022;2024-03-23T09:48:59;5.55;;;1.30;;
37805;SDS011;25082;50.870;0.022;2024-03-23T09:51:26;6.90;;;1.33;;
37805;SDS011;25082;50.870;0.022;2024-03-23T09:53:52;4.10;;;1.15;;
37805;SDS011;25082;50.870;0.022;2024-03-23T09:56:18;6.68;;;1.40;;
37805;SDS011;25082;50.870;0.022;2024-03-23T09:58:44;5.85;;;1.40;;
37805;SDS011;25082;50.870;0.022;2024-03-23T10:01:09;3.97;;;1.42;;
37805;SDS011;25082;50.870;0.022;2024-03-23T10:03:45;3.65;;;1.05;;
37805;SDS011;25082;50.870;0.022;2024-03-23T10:06:11;4.90;;;0.88;;
37805;SDS011;25082;50.870;0.022;2024-03-23T10:08:37;4.88;;;1.42;;
37805;SDS011;25082;50.870;0.022;2024-03-23T10:11:12;3.80;;;1.05;;
37805;SDS011;25082;50.870;0.022;2024-03-23T10:13:41;5.05;;;1.17;;
37805;SDS011;25082;50.870;0.022;2024-03-23T10:16:08;3.63;;;1.23;;
37805;SDS011;25082;50.870;0.022;2024-03-23T10:18:38;4.88;;;1.08;;
37805;SDS011;25082;50.870;0.022;2024-03-23T10:21:08;4.00;;;0.80;;
37805;SDS011;25082;50.870;0.022;2024-03-23T10:23:36;4.73;;;1.13;;
37805;SDS011;25082;50.870;0.022;2024-03-23T10:26:22;4.97;;;0.90;;
37805;SDS011;25082;50.870;0.022;2024-03-23T10:28:53;3.92;;;1.20;;
37805;SDS011;25082;50.870;0.022;2024-03-23T10:31:20;3.88;;;1.30;;
37805;SDS011;25082;50.870;0.022;2024-03-23T10:33:49;5.97;;;0.90;;
37805;SDS011;25082;50.870;0.022;2024-03-23T10:36:15;3.50;;;1.00;;
37805;SDS011;25082;50.870;0.022;2024-03-23T10:38:42;4.40;;;1.52;;
37805;SDS011;25082;50.870;0.022;2024-03-23T10:41:09;2.10;;;0.80;;
37805;SDS011;25082;50.870;0.022;2024-03-23T10:43:36;3.72;;;1.27;;
37805;SDS011;25082;50.870;0.022;2024-03-23T10:46:03;4.45;;;1.20;;
37805;SDS011;25082;50.870;0.022;2024-03-23T10:48:29;1.98;;;0.95;;
37805;SDS011;25082;50.870;0.022;2024-03-23T10:50:55;6.43;;;1.90;;
37805;SDS011;25082;50.870;0.022;2024-03-23T10:53:28;2.42;;;0.80;;
37805;SDS011;25082;50.870;0.022;2024-03-23T10:55:54;2.25;;;0.90;;
37805;SDS011;25082;50.870;0.022;2024-03-23T10:58:45;3.78;;;1.33;;
37805;SDS011;25082;50.870;0.022;2024-03-23T11:01:12;3.80;;;1.33;;
37805;SDS011;25082;50.870;0.022;2024-03-23T11:03:39;2.67;;;0.93;;
37805;SDS011;25082;50.870;0.022;2024-03-23T11:06:09;4.00;;;1.17;;
37805;SDS011;25082;50.870;0.022;2024-03-23T11:08:39;3.90;;;1.30;;
37805;SDS011;25082;50.870;0.022;2024-03-23T11:11:20;4.43;;;1.25;;
37805;SDS011;25082;50.870;0.022;2024-03-23T11:13:53;5.72;;;1.15;;
37805;SDS011;25082;50.870;0.022;2024-03-23T11:16:23;3.40;;;1.00;;
37805;SDS011;25082;50.870;0.022;2024-03-23T11:18:50;3.70;;;1.23;;
37805;SDS011;25082;50.870;0.022;2024-03-23T11:24:17;4.25;;;1.33;;
37805;SDS011;25082;50.870;0.022;2024-03-23T11:26:43;5.63;;;1.50;;
37805;SDS011;25082;50.870;0.022;2024-03-23T11:29:09;3.78;;;1.08;;
37805;SDS011;25082;50.870;0.022;2024-03-23T11:31:50;5.53;;;1.60;;
37805;SDS011;25082;50.870;0.022;2024-03-23T11:34:17;4.55;;;1.45;;
37805;SDS011;25082;50.870;0.022;2024-03-23T11:36:43;8.25;;;1.23;;
37805;SDS011;25082;50.870;0.022;2024-03-23T11:39:19;4.85;;;1.52;;
37805;SDS011;25082;50.870;0.022;2024-03-23T11:44:16;5.45;;;1.38;;
37805;SDS011;25082;50.870;0.022;2024-03-23T11:46:46;7.72;;;1.60;;
37805;SDS011;25082;50.870;0.022;2024-03-23T11:49:24;4.70;;;1.42;;
37805;SDS011;25082;50.870;0.022;2024-03-23T11:51:51;5.53;;;1.35;;
37805;SDS011;25082;50.870;0.022;2024-03-23T11:54:25;4.85;;;1.42;;
37805;SDS011;25082;50.870;0.022;2024-03-23T11:56:58;5.28;;;1.23;;
37805;SDS011;25082;50.870;0.022;2024-03-23T11:59:30;4.97;;;1.60;;
37805;SDS011;25082;50.870;0.022;2024-03-23T12:01:57;3.78;;;1.38;;
37805;SDS011;25082;50.870;0.022;2024-03-23T12:04:26;3.38;;;1.10;;
37805;SDS011;25082;50.870;0.022;2024-03-23T12:07:08;5.22;;;1.48;;
37805;SDS011;25082;50.870;0.022;2024-03-23T12:09:44;12.30;;;1.47;;
37805;SDS011;25082;50.870;0.022;2024-03-23T12:12:13;5.97;;;1.30;;
37805;SDS011;25082;50.870;0.022;2024-03-23T12:14:44;3.15;;;1.08;;
37805;SDS011;25082;50.870;0.022;2024-03-23T12:19:38;7.30;;;1.45;;
37805;SDS011;25082;50.870;0.022;2024-03-23T12:22:04;5.20;;;1.42;;
37805;SDS011;25082;50.870;0.022;2024-03-23T12:24:31;4.50;;;1.30;;
37805;SDS011;25082;50.870;0.022;2024-03-23T12:26:59;5.88;;;1.40;;
37805;SDS011;25082;50.870;0.022;2024-03-23T12:29:30;3.75;;;0.95;;
37805;SDS011;25082;50.870;0.022;2024-03-23T12:32:00;7.05;;;1.08;;
37805;SDS011;25082;50.870;0.022;2024-03-23T12:34:27;5.57;;;1.10;;
37805;SDS011;25082;50.870;0.022;2024-03-23T12:36:53;6.00;;;1.33;;
37805;SDS011;25082;50.870;0.022;2024-03-23T12:39:19;4.80;;;1.48;;
37805;SDS011;25082;50.870;0.022;2024-03-23T12:41:48;4.32;;;1.65;;
37805;SDS011;25082;50.870;0.022;2024-03-23T12:44:15;6.60;;;1.20;;
37805;SDS011;25082;50.870;0.022;2024-03-23T12:46:41;3.40;;;1.00;;
37805;SDS011;25082;50.870;0.022;2024-03-23T12:49:07;5.40;;;1.30;;
37805;SDS011;25082;50.870;0.022;2024-03-23T12:51:33;6.20;;;0.95;;
37805;SDS011;25082;50.870;0.022;2024-03-23T12:53:59;3.03;;;1.08;;
37805;SDS011;25082;50.870;0.022;2024-03-23T12:56:25;5.18;;;1.20;;
37805;SDS011;25082;50.870;0.022;2024-03-23T12:58:53;2.40;;;1.10;;
37805;SDS011;25082;50.870;0.022;2024-03-23T13:01:20;3.03;;;1.05;;
37805;SDS011;25082;50.870;0.022;2024-03-23T13:03:46;4.43;;;1.20;;
37805;SDS011;25082;50.870;0.022;2024-03-23T13:06:12;3.67;;;1.10;;
37805;SDS011;25082;50.870;0.022;2024-03-23T13:08:38;14.45;;;3.28;;
37805;SDS011;25082;50.870;0.022;2024-03-23T13:11:08;16.33;;;4.65;;
37805;SDS011;25082;50.870;0.022;2024-03-23T13:13:35;7.47;;;2.70;;
37805;SDS011;25082;50.870;0.022;2024-03-23T13:16:02;8.25;;;2.38;;
37805;SDS011;25082;50.870;0.022;2024-03-23T13:18:29;8.60;;;2.28;;
37805;SDS011;25082;50.870;0.022;2024-03-23T13:20:55;6.47;;;1.85;;
37805;SDS011;25082;50.870;0.022;2024-03-23T13:23:21;8.95;;;2.33;;
37805;SDS011;25082;50.870;0.022;2024-03-23T13:25:54;11.50;;;2.95;;
37805;SDS011;25082;50.870;0.022;2024-03-23T13:28:21;8.32;;;2.55;;
37805;SDS011;25082;50.870;0.022;2024-03-23T13:30:53;9.45;;;2.38;;
37805;SDS011;25082;50.870;0.022;2024-03-23T13:33:20;9.10;;;2.97;;
37805;SDS011;25082;50.870;0.022;2024-03-23T13:35:50;10.50;;;3.45;;
37805;SDS011;25082;50.870;0.022;2024-03-23T13:38:21;9.82;;;3.17;;
37805;SDS011;25082;50.870;0.022;2024-03-23T13:40:57;11.93;;;3.28;;
37805;SDS011;25082;50.870;0.022;2024-03-23T13:43:25;13.45;;;3.78;;
37805;SDS011;25082;50.870;0.022;2024-03-23T13:45:54;14.35;;;3.50;;
37805;SDS011;25082;50.870;0.022;2024-03-23T13:48:23;11.27;;;3.70;;
37805;SDS011;25082;50.870;0.022;2024-03-23T13:51:02;18.67;;;4.78;;
37805;SDS011;25082;50.870;0.022;2024-03-23T13:53:29;11.15;;;3.70;;
37805;SDS011;25082;50.870;0.022;2024-03-23T13:55:55;12.15;;;4.18;;
37805;SDS011;25082;50.870;0.022;2024-03-23T13:58:21;12.00;;;3.78;;
37805;SDS011;25082;50.870;0.022;2024-03-23T14:00:48;12.40;;;3.65;;
37805;SDS011;25082;50.870;0.022;2024-03-23T14:03:14;15.02;;;4.15;;
37805;SDS011;25082;50.870;0.022;2024-03-23T14:05:40;11.95;;;3.70;;
37805;SDS011;25082;50.870;0.022;2024-03-23T14:08:07;11.90;;;3.15;;
37805;SDS011;25082;50.870;0.022;2024-03-23T14:10:33;9.85;;;3.50;;
37805;SDS011;25082;50.870;0.022;2024-03-23T14:13:01;11.25;;;4.03;;
37805;SDS011;25082;50.870;0.022;2024-03-23T14:15:27;10.18;;;3.90;;
37805;SDS011;25082;50.870;0.022;2024-03-23T14:17:53;8.77;;;2.95;;
37805;SDS011;25082;50.870;0.022;2024-03-23T14:20:20;12.25;;;3.92;;
37805;SDS011;25082;50.870;0.022;2024-03-23T14:22:46;13.02;;;3.47;;
37805;SDS011;25082;50.870;0.022;2024-03-23T14:25:13;12.35;;;2.55;;
37805;SDS011;25082;50.870;0.022;2024-03-23T14:27:38;10.82;;;3.17;;
37805;SDS011;25082;50.870;0.022;2024-03-23T14:30:05;4.72;;;2.00;;
37805;SDS011;25082;50.870;0.022;2024-03-23T14:32:31;10.20;;;2.50;;
37805;SDS011;25082;50.870;0.022;2024-03-23T14:35:02;9.73;;;3.13;;
37805;SDS011;25082;50.870;0.022;2024-03-23T14:37:28;11.20;;;2.58;;
37805;SDS011;25082;50.870;0.022;2024-03-23T14:39:57;8.93;;;2.35;;
37805;SDS011;25082;50.870;0.022;2024-03-23T14:42:24;8.10;;;2.40;;
37805;SDS011;25082;50.870;0.022;2024-03-23T14:44:50;4.50;;;1.75;;
37805;SDS011;25082;50.870;0.022;2024-03-23T14:47:17;4.30;;;1.75;;
37805;SDS011;25082;50.870;0.022;2024-03-23T14:49:44;11.75;;;2.88;;
37805;SDS011;25082;50.870;0.022;2024-03-23T14:52:19;6.78;;;1.85;;
37805;SDS011;25082;50.870;0.022;2024-03-23T14:54:45;4.20;;;1.77;;
37805;SDS011;25082;50.870;0.022;2024-03-23T14:57:11;9.90;;;2.00;;
37805;SDS011;25082;50.870;0.022;2024-03-23T14:59:37;5.03;;;1.70;;
37805;SDS011;25082;50.870;0.022;2024-03-23T15:02:07;7.45;;;1.83;;
37805;SDS011;25082;50.870;0.022;2024-03-23T15:04:33;4.95;;;1.88;;
37805;SDS011;25082;50.870;0.022;2024-03-23T15:06:59;6.72;;;1.58;;
37805;SDS011;25082;50.870;0.022;2024-03-23T15:09:25;5.15;;;1.80;;
37805;SDS011;25082;50.870;0.022;2024-03-23T15:11:50;8.85;;;2.08;;
37805;SDS011;25082;50.870;0.022;2024-03-23T15:14:16;6.38;;;1.67;;
37805;SDS011;25082;50.870;0.022;2024-03-23T15:16:42;4.38;;;1.58;;
37805;SDS011;25082;50.870;0.022;2024-03-23T15:19:08;4.10;;;1.38;;
37805;SDS011;25082;50.870;0.022;2024-03-23T15:21:34;2.28;;;1.30;;
37805;SDS011;25082;50.870;0.022;2024-03-23T15:23:59;4.18;;;1.58;;
37805;SDS011;25082;50.870;0.022;2024-03-23T15:26:25;3.08;;;1.45;;
37805;SDS011;25082;50.870;0.022;2024-03-23T15:28:51;3.72;;;1.15;;
37805;SDS011;25082;50.870;0.022;2024-03-23T15:31:23;3.40;;;1.20;;
37805;SDS011;25082;50.870;0.022;2024-03-23T15:33:49;3.53;;;0.90;;
37805;SDS011;25082;50.870;0.022;2024-03-23T15:36:16;9.65;;;1.38;;
37805;SDS011;25082;50.870;0.022;2024-03-23T15:38:42;3.42;;;0.95;;
37805;SDS011;25082;50.870;0.022;2024-03-23T15:41:08;4.78;;;1.08;;
37805;SDS011;25082;50.870;0.022;2024-03-23T15:43:35;2.97;;;1.15;;
37805;SDS011;25082;50.870;0.022;2024-03-23T15:46:01;4.22;;;1.58;;
37805;SDS011;25082;50.870;0.022;2024-03-23T15:48:28;8.80;;;1.52;;
37805;SDS011;25082;50.870;0.022;2024-03-23T15:50:56;3.53;;;1.10;;
37805;SDS011;25082;50.870;0.022;2024-03-23T15:53:23;10.38;;;1.40;;